Terminal Aerodrome Forecast
Issued by NWS Rapid City, SD

Home | Current Version | Previous Version | Graphics & Text | Print | Product List | Glossary On
Versions: 1 2 3 4 5 6 7 8 9 10 11 12 13 14 15 16 17
761
FTUS43 KUNR 172320
TAFRAP
TAF
KRAP 172320Z 1800/1824 34020G30KT P6SM -SHRA SCT009 OVC025
      TEMPO 1802/1805 4SM -SHRASN BKN015
     FM180800 32012KT P6SM SCT020 BKN050
     FM181500 33020G30KT P6SM SCT040=

USA.gov is the U.S. government's official web portal to all federal, state and local government web resources and services.